createdAt,value
2023-01-25T00:02:23.841Z,17.80
2023-01-25T00:04:50.413Z,16.80
2023-01-25T00:07:16.941Z,18.90
2023-01-25T00:09:43.469Z,16.23
2023-01-25T00:12:09.928Z,17.27
2023-01-25T00:14:36.915Z,16.80
2023-01-25T00:17:03.529Z,16.07
2023-01-25T00:19:30.068Z,16.77
2023-01-25T00:21:56.772Z,15.63
2023-01-25T00:24:24.257Z,17.03
2023-01-25T00:26:50.778Z,17.53
2023-01-25T00:29:17.874Z,16.23
2023-01-25T00:32:14.053Z,15.97
2023-01-25T00:34:46.239Z,16.23
2023-01-25T00:37:20.581Z,16.40
2023-01-25T00:39:47.537Z,18.15
2023-01-25T00:42:15.942Z,17.70
2023-01-25T00:44:42.850Z,18.37
2023-01-25T00:47:12.921Z,17.43
2023-01-25T00:49:41.188Z,17.03
2023-01-25T00:52:08.390Z,17.87
2023-01-25T00:54:34.945Z,17.27
2023-01-25T00:57:01.496Z,20.03
2023-01-25T00:59:28.023Z,18.53
2023-01-25T01:01:54.819Z,17.67
2023-01-25T01:04:25.075Z,19.17
2023-01-25T01:06:53.838Z,20.67
2023-01-25T01:09:21.858Z,19.70
2023-01-25T01:11:48.676Z,18.30
2023-01-25T01:14:15.283Z,17.87
2023-01-25T01:16:41.965Z,20.57
2023-01-25T01:19:08.987Z,18.90
2023-01-25T01:21:35.467Z,17.97
2023-01-25T01:24:02.083Z,19.60
2023-01-25T01:26:28.634Z,19.93
2023-01-25T01:28:55.175Z,18.93
2023-01-25T01:31:24.218Z,17.67
2023-01-25T01:33:52.646Z,18.97
2023-01-25T01:36:21.728Z,18.27
2023-01-25T01:38:48.367Z,17.17
2023-01-25T01:41:16.155Z,18.27
2023-01-25T01:43:43.356Z,17.67
2023-01-25T01:46:35.941Z,17.67
2023-01-25T01:49:23.815Z,18.63
2023-01-25T01:52:06.266Z,17.60
2023-01-25T01:54:42.490Z,17.80
2023-01-25T01:57:29.733Z,17.03
2023-01-25T02:00:18.530Z,17.10
2023-01-25T02:02:46.621Z,17.60
2023-01-25T02:05:40.662Z,18.37
2023-01-25T02:08:10.623Z,17.50
2023-01-25T02:10:38.753Z,18.23
2023-01-25T02:13:05.250Z,17.00
2023-01-25T02:15:42.035Z,18.43
2023-01-25T02:18:10.617Z,21.10
2023-01-25T02:20:52.549Z,21.03
2023-01-25T02:23:51.660Z,23.70
2023-01-25T02:26:19.667Z,24.10
2023-01-25T02:28:55.847Z,23.37
2023-01-25T02:31:22.544Z,22.70
2023-01-25T02:33:49.471Z,23.07
2023-01-25T02:36:21.322Z,25.20
2023-01-25T02:39:01.505Z,24.43
2023-01-25T02:41:36.284Z,25.53
2023-01-25T02:46:36.066Z,25.87
2023-01-25T02:49:04.771Z,28.77
2023-01-25T02:51:34.656Z,29.97
2023-01-25T02:54:02.567Z,29.83
2023-01-25T02:56:30.127Z,30.53
2023-01-25T02:58:56.816Z,30.67
2023-01-25T03:01:23.785Z,30.83
2023-01-25T03:03:50.310Z,31.67
2023-01-25T03:06:17.146Z,30.27
2023-01-25T03:08:43.684Z,28.23
2023-01-25T03:11:10.239Z,27.27
2023-01-25T03:13:38.188Z,25.87
2023-01-25T03:16:08.393Z,26.93
2023-01-25T03:18:35.956Z,25.30
2023-01-25T03:21:23.421Z,25.67
2023-01-25T03:23:57.018Z,25.87
2023-01-25T03:26:24.312Z,24.03
2023-01-25T03:28:50.823Z,24.33
2023-01-25T03:31:18.435Z,23.43
2023-01-25T03:33:46.261Z,23.50
2023-01-25T03:36:13.177Z,22.20
2023-01-25T03:38:39.820Z,22.63
2023-01-25T03:41:06.403Z,22.53
2023-01-25T03:43:32.936Z,22.47
2023-01-25T03:46:01.581Z,21.83
2023-01-25T03:48:29.111Z,21.53
2023-01-25T03:50:58.142Z,21.30
2023-01-25T03:53:29.798Z,20.80
2023-01-25T03:55:59.672Z,22.00
2023-01-25T03:58:26.830Z,22.20
2023-01-25T04:00:56.346Z,21.07
2023-01-25T04:03:23.558Z,22.20
2023-01-25T04:05:50.746Z,21.47
2023-01-25T04:08:18.049Z,22.27
2023-01-25T04:10:45.642Z,22.67
2023-01-25T04:13:12.159Z,22.93
2023-01-25T04:15:38.694Z,22.37
2023-01-25T04:18:05.222Z,22.07
2023-01-25T04:20:31.763Z,22.10
2023-01-25T04:22:58.339Z,20.67
2023-01-25T04:25:24.898Z,21.27
2023-01-25T04:27:51.691Z,22.10
2023-01-25T04:30:19.397Z,22.37
2023-01-25T04:32:46.683Z,20.50
2023-01-25T04:35:13.383Z,19.13
2023-01-25T04:37:39.881Z,20.40
2023-01-25T04:40:07.721Z,20.20
2023-01-25T04:42:34.430Z,18.07
2023-01-25T04:45:00.959Z,20.07
2023-01-25T04:47:27.425Z,20.40
2023-01-25T04:49:53.861Z,19.47
2023-01-25T04:52:20.545Z,20.67
2023-01-25T04:54:47.100Z,20.07
2023-01-25T04:57:13.648Z,20.03
2023-01-25T04:59:40.187Z,19.60
2023-01-25T05:02:06.770Z,20.40
2023-01-25T05:04:33.332Z,20.67
2023-01-25T05:06:59.846Z,20.87
2023-01-25T05:09:26.295Z,19.40
2023-01-25T05:11:52.939Z,20.40
2023-01-25T05:14:19.430Z,20.70
2023-01-25T05:16:47.388Z,19.07
2023-01-25T05:19:14.059Z,19.43
2023-01-25T05:21:58.926Z,20.57
2023-01-25T05:24:35.379Z,18.27
2023-01-25T05:27:05.737Z,19.57
2023-01-25T05:29:37.861Z,19.03
2023-01-25T05:32:18.584Z,19.33
2023-01-25T05:34:45.612Z,19.23
2023-01-25T05:37:18.513Z,18.80
2023-01-25T05:39:45.257Z,19.67
2023-01-25T05:42:17.623Z,19.90
2023-01-25T05:44:47.038Z,18.33
2023-01-25T05:47:16.633Z,18.20
2023-01-25T05:49:43.420Z,18.37
2023-01-25T05:52:17.211Z,20.07
2023-01-25T05:54:43.906Z,17.97
2023-01-25T05:57:10.603Z,18.43
2023-01-25T05:59:37.114Z,19.30
2023-01-25T06:02:03.680Z,18.97
2023-01-25T06:04:30.225Z,18.13
2023-01-25T06:06:56.733Z,17.83
2023-01-25T06:09:23.580Z,17.87
2023-01-25T06:11:50.230Z,18.33
2023-01-25T06:14:17.161Z,19.33
2023-01-25T06:16:43.677Z,17.80
2023-01-25T06:19:13.561Z,18.90
2023-01-25T06:21:40.197Z,17.83
2023-01-25T06:24:07.301Z,18.63
2023-01-25T06:26:33.822Z,18.37
2023-01-25T06:29:00.446Z,19.63
2023-01-25T06:31:27.605Z,17.70
2023-01-25T06:33:54.344Z,18.47
2023-01-25T06:36:22.104Z,18.00
2023-01-25T06:38:50.729Z,18.57
2023-01-25T06:41:17.491Z,18.10
2023-01-25T06:43:44.246Z,18.17
2023-01-25T06:46:14.210Z,19.47
2023-01-25T06:48:42.948Z,18.67
2023-01-25T06:51:12.450Z,18.77
2023-01-25T06:53:41.981Z,18.60
2023-01-25T06:56:12.034Z,16.97
2023-01-25T06:58:39.739Z,18.57
2023-01-25T07:01:13.839Z,17.87
2023-01-25T07:03:41.001Z,19.52
2023-01-25T07:06:09.951Z,17.53
2023-01-25T07:08:37.385Z,17.23
2023-01-25T07:11:09.531Z,17.63
2023-01-25T07:13:36.080Z,17.70
2023-01-25T07:16:06.020Z,16.93
2023-01-25T07:18:33.328Z,17.50
2023-01-25T07:21:11.111Z,17.60
2023-01-25T07:23:38.440Z,16.67
2023-01-25T07:26:06.280Z,18.07
2023-01-25T07:28:33.305Z,16.87
2023-01-25T07:31:07.233Z,19.40
2023-01-25T07:33:34.720Z,17.52
2023-01-25T07:36:06.506Z,18.73
2023-01-25T07:38:33.622Z,17.83
2023-01-25T07:41:01.071Z,18.30
2023-01-25T07:43:27.924Z,17.77
2023-01-25T07:45:54.582Z,17.47
2023-01-25T07:48:21.405Z,17.93
2023-01-25T07:51:07.923Z,17.50
2023-01-25T07:53:34.431Z,17.30
2023-01-25T07:56:01.585Z,17.10
2023-01-25T07:58:28.164Z,17.40
2023-01-25T08:00:54.783Z,17.80
2023-01-25T08:03:22.259Z,16.83
2023-01-25T08:05:49.220Z,18.37
2023-01-25T08:08:15.780Z,17.43
2023-01-25T08:10:42.262Z,17.40
2023-01-25T08:13:08.731Z,18.30
2023-01-25T08:15:35.210Z,16.73
2023-01-25T08:18:02.312Z,17.37
2023-01-25T08:20:28.919Z,17.87
2023-01-25T08:22:55.540Z,18.27
2023-01-25T08:25:22.035Z,18.50
2023-01-25T08:27:48.647Z,17.30
2023-01-25T08:30:15.700Z,17.43
2023-01-25T08:32:42.155Z,17.63
2023-01-25T08:35:09.687Z,17.77
2023-01-25T08:37:36.414Z,18.00
2023-01-25T08:40:03.519Z,17.27
2023-01-25T08:42:32.280Z,18.10
2023-01-25T08:44:59.052Z,18.37
2023-01-25T08:47:26.674Z,17.77
2023-01-25T08:49:55.322Z,20.40
2023-01-25T08:52:22.916Z,16.80
2023-01-25T08:54:49.454Z,17.73
2023-01-25T08:57:15.944Z,18.20
2023-01-25T08:59:42.447Z,18.00
2023-01-25T09:02:12.453Z,18.47
2023-01-25T09:04:39.336Z,19.50
2023-01-25T09:07:06.165Z,19.37
2023-01-25T09:09:32.712Z,16.63
2023-01-25T09:11:59.229Z,18.80
2023-01-25T09:14:26.118Z,18.97
2023-01-25T09:16:52.628Z,18.73
2023-01-25T09:19:19.123Z,18.53
2023-01-25T09:21:45.755Z,19.27
2023-01-25T09:24:12.323Z,18.47
2023-01-25T09:26:42.942Z,18.97
2023-01-25T09:29:11.884Z,19.50
2023-01-25T09:31:44.095Z,19.57
2023-01-25T09:34:13.110Z,17.83
2023-01-25T09:36:40.018Z,19.43
2023-01-25T09:39:07.138Z,19.27
2023-01-25T09:41:42.569Z,18.13
2023-01-25T09:44:15.460Z,18.30
2023-01-25T09:46:44.206Z,18.80
2023-01-25T09:49:28.813Z,18.67
2023-01-25T09:52:16.947Z,17.05
2023-01-25T09:54:47.377Z,18.10
2023-01-25T09:57:38.040Z,17.97
2023-01-25T10:00:20.756Z,18.40
2023-01-25T10:02:58.130Z,17.87
2023-01-25T10:05:31.913Z,17.67
2023-01-25T10:08:12.350Z,17.53
2023-01-25T10:10:42.162Z,16.60
2023-01-25T10:13:14.095Z,17.13
2023-01-25T10:15:47.955Z,18.70
2023-01-25T10:18:33.038Z,17.58
2023-01-25T10:23:43.589Z,17.83
2023-01-25T10:26:22.089Z,16.50
2023-01-25T10:28:59.250Z,18.13
2023-01-25T10:31:39.213Z,15.63
2023-01-25T10:34:47.015Z,16.30
2023-01-25T10:37:26.895Z,16.70
2023-01-25T10:40:11.956Z,16.07
2023-01-25T10:42:44.760Z,16.08
2023-01-25T10:45:16.109Z,16.60
2023-01-25T10:47:50.440Z,17.37
2023-01-25T10:50:35.594Z,16.15
2023-01-25T10:55:28.568Z,14.83
2023-01-25T10:58:00.525Z,15.10
2023-01-25T11:00:41.732Z,14.70
2023-01-25T11:03:21.591Z,14.40
2023-01-25T11:05:55.865Z,12.60
2023-01-25T11:08:37.347Z,14.35
2023-01-25T11:11:23.285Z,12.43
2023-01-25T11:13:50.308Z,13.23
2023-01-25T11:16:24.907Z,14.20
2023-01-25T11:18:54.118Z,13.15
2023-01-25T11:21:25.247Z,13.47
2023-01-25T11:24:11.837Z,12.83
2023-01-25T11:26:40.697Z,12.83
2023-01-25T11:29:21.538Z,12.77
2023-01-25T11:31:51.531Z,12.67
2023-01-25T11:34:26.466Z,12.13
2023-01-25T11:37:11.846Z,10.77
2023-01-25T11:39:50.238Z,11.40
2023-01-25T11:42:22.703Z,11.87
2023-01-25T11:45:23.561Z,10.93
2023-01-25T11:48:28.444Z,9.10
2023-01-25T11:51:15.599Z,11.00
2023-01-25T11:54:17.521Z,11.13
2023-01-25T11:56:49.990Z,11.30
2023-01-25T11:59:45.078Z,11.63
2023-01-25T12:02:32.933Z,11.85
2023-01-25T12:05:22.601Z,12.63
2023-01-25T12:07:55.047Z,9.83
2023-01-25T12:10:58.805Z,11.57
2023-01-25T12:13:31.331Z,11.43
2023-01-25T12:16:09.810Z,11.50
2023-01-25T12:18:45.030Z,11.40
2023-01-25T12:21:31.310Z,11.87
2023-01-25T12:24:10.480Z,12.57
2023-01-25T12:26:49.205Z,12.83
2023-01-25T12:29:25.071Z,11.97
2023-01-25T12:31:55.409Z,12.90
2023-01-25T12:34:30.464Z,12.53
2023-01-25T12:37:03.498Z,13.60
2023-01-25T12:39:38.082Z,13.53
2023-01-25T12:42:14.510Z,13.20
2023-01-25T12:44:49.569Z,12.43
2023-01-25T12:47:36.308Z,13.33
2023-01-25T12:50:15.330Z,12.87
2023-01-25T12:52:49.265Z,14.23
2023-01-25T12:55:18.264Z,14.15
2023-01-25T12:58:01.158Z,14.03
2023-01-25T13:00:33.839Z,14.67
2023-01-25T13:03:11.081Z,13.20
2023-01-25T13:06:05.158Z,14.03
2023-01-25T13:08:49.144Z,14.83
2023-01-25T13:11:23.929Z,16.17
2023-01-25T13:16:29.153Z,13.30
2023-01-25T13:18:55.968Z,14.33
2023-01-25T13:21:37.456Z,13.80
2023-01-25T13:24:13.207Z,15.80
2023-01-25T13:26:55.010Z,15.10
2023-01-25T13:29:34.812Z,14.53
2023-01-25T13:32:02.823Z,14.17
2023-01-25T13:34:35.726Z,14.43
2023-01-25T13:37:33.706Z,13.70
2023-01-25T13:40:26.190Z,14.57
2023-01-25T13:43:22.466Z,14.07
2023-01-25T13:45:52.686Z,15.37
2023-01-25T13:48:25.100Z,13.30
2023-01-25T13:51:11.993Z,13.63
2023-01-25T13:53:39.747Z,14.77
2023-01-25T13:56:24.833Z,14.17
2023-01-25T13:58:51.331Z,14.73
2023-01-25T14:01:23.503Z,15.57
2023-01-25T14:03:53.419Z,15.43
2023-01-25T14:06:24.989Z,14.13
2023-01-25T14:08:53.720Z,12.17
2023-01-25T14:11:26.460Z,14.97
2023-01-25T14:14:18.792Z,13.33
2023-01-25T14:16:45.563Z,13.50
2023-01-25T14:19:29.477Z,14.53
2023-01-25T14:22:35.711Z,14.50
2023-01-25T14:25:08.145Z,14.33
2023-01-25T14:27:37.616Z,15.10
2023-01-25T14:30:05.580Z,15.03
2023-01-25T14:32:32.770Z,15.80
2023-01-25T14:34:59.388Z,14.87
2023-01-25T14:37:25.940Z,14.40
2023-01-25T14:39:53.037Z,15.70
2023-01-25T14:42:20.266Z,14.80
2023-01-25T14:44:47.474Z,16.37
2023-01-25T14:47:31.191Z,14.10
2023-01-25T14:50:30.119Z,13.87
2023-01-25T14:52:58.889Z,15.83
2023-01-25T14:55:26.645Z,15.03
2023-01-25T14:57:59.149Z,15.73
2023-01-25T15:00:34.491Z,16.57
2023-01-25T15:03:05.750Z,14.83
2023-01-25T15:05:35.154Z,15.30
2023-01-25T15:08:07.771Z,14.30
2023-01-25T15:10:36.896Z,14.17
2023-01-25T15:13:14.633Z,15.23
2023-01-25T15:15:55.285Z,16.03
2023-01-25T15:18:51.248Z,14.53
2023-01-25T15:21:26.867Z,15.17
2023-01-25T15:23:55.589Z,13.60
2023-01-25T15:26:23.359Z,14.93
2023-01-25T15:28:52.253Z,13.17
2023-01-25T15:31:28.769Z,15.17
2023-01-25T15:34:00.099Z,14.90
2023-01-25T15:36:27.185Z,14.93
2023-01-25T15:38:54.726Z,14.13
2023-01-25T15:41:21.439Z,15.43
2023-01-25T15:43:48.720Z,16.17
2023-01-25T15:46:19.275Z,15.10
2023-01-25T15:48:48.321Z,16.23
2023-01-25T15:51:15.128Z,15.30
2023-01-25T15:53:41.827Z,15.83
2023-01-25T15:56:14.442Z,14.63
2023-01-25T15:58:44.029Z,17.33
2023-01-25T16:01:10.700Z,15.47
2023-01-25T16:03:41.320Z,16.07
2023-01-25T16:06:41.954Z,15.67
2023-01-25T16:09:27.003Z,16.50
2023-01-25T16:11:55.313Z,16.13
2023-01-25T16:14:23.704Z,17.53
2023-01-25T16:16:52.804Z,17.90
2023-01-25T16:19:22.014Z,16.10
2023-01-25T16:21:49.011Z,17.67
2023-01-25T16:24:15.586Z,17.93
2023-01-25T16:26:57.269Z,18.47
2023-01-25T16:29:24.000Z,15.87
2023-01-25T16:31:51.979Z,18.00
2023-01-25T16:34:20.242Z,15.87
2023-01-25T16:36:50.464Z,17.03
2023-01-25T16:39:25.381Z,17.37
2023-01-25T16:41:52.178Z,17.33
2023-01-25T16:44:18.693Z,17.63
2023-01-25T16:46:47.471Z,18.10
2023-01-25T16:49:23.684Z,16.73
2023-01-25T16:51:50.875Z,15.60
2023-01-25T16:54:19.997Z,17.90
2023-01-25T16:56:48.621Z,18.67
2023-01-25T16:59:15.948Z,17.53
2023-01-25T17:01:44.171Z,18.90
2023-01-25T17:04:11.693Z,18.53
2023-01-25T17:06:47.735Z,18.23
2023-01-25T17:09:23.767Z,17.23
2023-01-25T17:11:51.998Z,19.37
2023-01-25T17:14:19.891Z,18.30
2023-01-25T17:16:48.483Z,19.40
2023-01-25T17:19:17.033Z,18.67
2023-01-25T17:21:44.786Z,21.23
2023-01-25T17:24:14.842Z,20.03
2023-01-25T17:26:41.583Z,21.03
2023-01-25T17:29:10.135Z,21.40
2023-01-25T17:31:37.444Z,22.10
2023-01-25T17:34:06.577Z,20.60
2023-01-25T17:36:33.516Z,20.37
2023-01-25T17:39:07.270Z,20.50
2023-01-25T17:41:34.005Z,20.03
2023-01-25T17:44:00.727Z,21.47
2023-01-25T17:46:32.420Z,20.57
2023-01-25T17:49:01.540Z,21.10
2023-01-25T17:51:28.384Z,22.20
2023-01-25T17:53:55.099Z,22.00
2023-01-25T17:56:21.764Z,22.37
2023-01-25T17:58:48.296Z,21.40
2023-01-25T18:01:23.500Z,19.77
2023-01-25T18:03:51.299Z,20.90
2023-01-25T18:06:21.282Z,20.77
2023-01-25T18:08:50.145Z,20.67
2023-01-25T18:11:19.990Z,22.30
2023-01-25T18:13:49.272Z,22.80
2023-01-25T18:16:17.557Z,21.90
2023-01-25T18:18:45.773Z,20.13
2023-01-25T18:21:22.154Z,21.30
2023-01-25T18:23:48.908Z,21.27
2023-01-25T18:26:29.706Z,21.80
2023-01-25T18:29:37.826Z,21.50
2023-01-25T18:32:05.577Z,21.00
2023-01-25T18:34:32.280Z,20.37
2023-01-25T18:36:59.382Z,21.93
2023-01-25T18:39:26.704Z,21.17
2023-01-25T18:41:53.185Z,22.03
2023-01-25T18:44:19.889Z,22.10
2023-01-25T18:46:47.938Z,22.57
2023-01-25T18:49:14.563Z,23.20
2023-01-25T18:52:01.845Z,22.43
2023-01-25T18:54:27.603Z,20.07
2023-01-25T18:56:54.900Z,23.30
2023-01-25T18:59:21.381Z,21.87
2023-01-25T19:01:48.317Z,21.93
2023-01-25T19:04:15.011Z,21.83
2023-01-25T19:06:41.521Z,24.10
2023-01-25T19:09:08.046Z,23.13
2023-01-25T19:11:34.539Z,23.07
2023-01-25T19:14:01.733Z,22.43
2023-01-25T19:16:28.412Z,22.97
2023-01-25T19:18:55.366Z,25.30
2023-01-25T19:21:26.687Z,25.00
2023-01-25T19:23:54.872Z,23.93
2023-01-25T19:26:24.608Z,21.73
2023-01-25T19:28:52.014Z,20.53
2023-01-25T19:31:24.120Z,21.83
2023-01-25T19:34:00.446Z,22.63
2023-01-25T19:36:29.057Z,21.00
2023-01-25T19:38:57.361Z,19.60
2023-01-25T19:41:26.949Z,20.17
2023-01-25T19:43:58.391Z,21.73
2023-01-25T19:46:27.657Z,21.10
2023-01-25T19:48:54.864Z,20.37
2023-01-25T19:51:24.421Z,19.93
2023-01-25T19:53:58.582Z,19.30
2023-01-25T19:56:26.816Z,20.92
2023-01-25T19:58:53.739Z,20.67
2023-01-25T20:01:23.103Z,22.20
2023-01-25T20:03:50.124Z,22.13
2023-01-25T20:06:18.398Z,22.93
2023-01-25T20:08:46.478Z,21.67
2023-01-25T20:11:21.475Z,21.17
2023-01-25T20:13:49.734Z,22.97
2023-01-25T20:16:17.238Z,20.73
2023-01-25T20:18:45.371Z,23.60
2023-01-25T20:21:15.337Z,23.67
2023-01-25T20:23:44.373Z,20.83
2023-01-25T20:26:14.047Z,21.20
2023-01-25T20:28:42.404Z,20.50
2023-01-25T20:31:22.676Z,20.73
2023-01-25T20:33:50.647Z,20.00
2023-01-25T20:36:17.570Z,21.73
2023-01-25T20:38:44.896Z,21.07
2023-01-25T20:41:16.629Z,21.00
2023-01-25T20:43:57.431Z,22.43
2023-01-25T20:46:25.249Z,20.47
2023-01-25T20:48:53.695Z,22.03
2023-01-25T20:51:21.677Z,21.97
2023-01-25T20:53:50.059Z,21.67
2023-01-25T20:56:18.145Z,21.53
2023-01-25T20:58:50.404Z,21.97
2023-01-25T21:01:36.547Z,22.10
2023-01-25T21:04:04.691Z,22.17
2023-01-25T21:06:31.311Z,20.97
2023-01-25T21:08:59.259Z,21.93
2023-01-25T21:11:26.404Z,22.03
2023-01-25T21:13:54.007Z,21.23
2023-01-25T21:16:22.270Z,21.47
2023-01-25T21:18:51.746Z,23.37
2023-01-25T21:21:23.869Z,22.17
2023-01-25T21:23:51.012Z,21.67
2023-01-25T21:26:26.086Z,22.37
2023-01-25T21:28:56.319Z,22.70
2023-01-25T21:31:26.344Z,20.37
2023-01-25T21:33:54.570Z,23.73
2023-01-25T21:36:22.359Z,20.07
2023-01-25T21:38:50.354Z,23.50
2023-01-25T21:41:24.345Z,21.03
2023-01-25T21:44:14.214Z,22.40
2023-01-25T21:46:41.374Z,21.83
2023-01-25T21:49:28.748Z,22.07
2023-01-25T21:51:59.165Z,22.63
2023-01-25T21:54:31.146Z,20.53
2023-01-25T21:56:59.465Z,20.97
2023-01-25T21:59:27.468Z,20.87
2023-01-25T22:01:55.211Z,21.50
2023-01-25T22:04:23.889Z,20.97
2023-01-25T22:06:52.503Z,21.53
2023-01-25T22:09:19.348Z,20.60
2023-01-25T22:11:48.054Z,21.93
2023-01-25T22:14:15.568Z,19.70
2023-01-25T22:16:42.253Z,19.93
2023-01-25T22:19:08.953Z,20.40
2023-01-25T22:21:35.495Z,18.77
2023-01-25T22:24:04.653Z,20.20
2023-01-25T22:26:47.868Z,19.40
2023-01-25T22:29:15.185Z,19.70
2023-01-25T22:31:42.272Z,19.70
2023-01-25T22:34:09.588Z,20.17
2023-01-25T22:36:36.136Z,19.97
2023-01-25T22:39:02.671Z,20.27
2023-01-25T22:41:31.651Z,19.57
2023-01-25T22:43:58.508Z,19.00
2023-01-25T22:46:27.760Z,19.67
2023-01-25T22:48:54.664Z,19.47
2023-01-25T22:51:31.399Z,19.97
2023-01-25T22:53:59.717Z,20.10
2023-01-25T22:56:34.163Z,20.37
2023-01-25T22:59:01.742Z,21.60
2023-01-25T23:01:31.187Z,19.47
2023-01-25T23:03:57.846Z,20.93
2023-01-25T23:06:27.193Z,18.77
2023-01-25T23:09:00.105Z,18.67
2023-01-25T23:11:32.313Z,19.90
2023-01-25T23:14:18.579Z,18.43
2023-01-25T23:16:45.211Z,19.63
2023-01-25T23:19:11.984Z,20.43
2023-01-25T23:21:38.564Z,19.47
2023-01-25T23:24:05.616Z,19.20
2023-01-25T23:26:37.551Z,19.17
2023-01-25T23:29:07.328Z,18.40
2023-01-25T23:31:33.982Z,17.53
2023-01-25T23:34:02.804Z,18.00
2023-01-25T23:36:44.419Z,19.03
2023-01-25T23:39:12.991Z,18.07
2023-01-25T23:41:39.505Z,18.63
2023-01-25T23:44:06.002Z,17.83
2023-01-25T23:46:32.569Z,17.07
2023-01-25T23:48:59.149Z,18.03
2023-01-25T23:51:25.697Z,17.80
2023-01-25T23:53:53.591Z,17.77
2023-01-25T23:56:21.674Z,19.27
2023-01-25T23:58:49.054Z,16.30
